Map

Track Data

SID SEASON NUMBER BASIN SUBBASIN NAME ISO_TIME NATURE LAT LON WMO_WIND WMO_PRES WMO_AGENCY TRACK_TYPE DIST2LAND LANDFALL IFLAG USA_AGENCY USA_ATCF_ID USA_LAT USA_LON USA_RECORD USA_STATUS USA_WIND USA_PRES USA_SSHS USA_R34_NE USA_R34_SE USA_R34_SW USA_R34_NW USA_R50_NE USA_R50_SE USA_R50_SW USA_R50_NW USA_R64_NE USA_R64_SE USA_R64_SW USA_R64_NW USA_POCI USA_ROCI USA_RMW USA_EYE TOKYO_LAT TOKYO_LON TOKYO_GRADE TOKYO_WIND TOKYO_PRES TOKYO_R50_DIR TOKYO_R50_LONG TOKYO_R50_SHORT TOKYO_R30_DIR TOKYO_R30_LONG TOKYO_R30_SHORT TOKYO_LAND CMA_LAT CMA_LON CMA_CAT CMA_WIND CMA_PRES HKO_LAT HKO_LON HKO_CAT HKO_WIND HKO_PRES NEWDELHI_LAT NEWDELHI_LON NEWDELHI_GRADE NEWDELHI_WIND NEWDELHI_PRES NEWDELHI_CI NEWDELHI_DP NEWDELHI_POCI REUNION_LAT REUNION_LON REUNION_TYPE REUNION_WIND REUNION_PRES REUNION_TNUM REUNION_CI REUNION_RMW REUNION_R34_NE REUNION_R34_SE REUNION_R34_SW REUNION_R34_NW REUNION_R50_NE REUNION_R50_SE REUNION_R50_SW REUNION_R50_NW REUNION_R64_NE REUNION_R64_SE REUNION_R64_SW REUNION_R64_NW BOM_LAT BOM_LON BOM_TYPE BOM_WIND BOM_PRES BOM_TNUM BOM_CI BOM_RMW BOM_R34_NE BOM_R34_SE BOM_R34_SW BOM_R34_NW BOM_R50_NE BOM_R50_SE BOM_R50_SW BOM_R50_NW BOM_R64_NE BOM_R64_SE BOM_R64_SW BOM_R64_NW BOM_ROCI BOM_POCI BOM_EYE BOM_POS_METHOD BOM_PRES_METHOD NADI_LAT NADI_LON NADI_CAT NADI_WIND NADI_PRES WELLINGTON_LAT WELLINGTON_LON WELLINGTON_WIND WELLINGTON_PRES DS824_LAT DS824_LON DS824_STAGE DS824_WIND DS824_PRES TD9636_LAT TD9636_LON TD9636_STAGE TD9636_WIND TD9636_PRES TD9635_LAT TD9635_LON TD9635_WIND TD9635_PRES TD9635_ROCI NEUMANN_LAT NEUMANN_LON NEUMANN_CLASS NEUMANN_WIND NEUMANN_PRES MLC_LAT MLC_LON MLC_CLASS MLC_WIND MLC_PRES USA_GUST BOM_GUST BOM_GUST_PER REUNION_GUST REUNION_GUST_PER USA_SEAHGT USA_SEARAD_NE USA_SEARAD_SE USA_SEARAD_SW USA_SEARAD_NW STORM_SPEED STORM_DIR
1923067S13125 1923 18 SI WA NOT_NAMED 1923-03-07 12:00:00 NR -12.5000 125.400 main 184 174 __________O___ -1 -12.5000 125.400 7 1 0
1923067S13125 1923 18 SI WA NOT_NAMED 1923-03-07 15:00:00 NR -12.5578 125.380 main 174 174 __________P___ -1 -12.5578 125.380 7 1 207
1923067S13125 1923 18 SI WA NOT_NAMED 1923-03-07 18:00:00 NR -12.6225 125.347 main 179 169 __________P___ -1 -12.6225 125.347 7 2 212
1923067S13125 1923 18 SI WA NOT_NAMED 1923-03-07 21:00:00 NR -12.7009 125.292 main 169 169 __________P___ -1 -12.7009 125.292 7 1 215
1923067S13125 1923 18 SI WA NOT_NAMED 1923-03-07 23:30:00 NR -12.7254 125.275 bom main 169 169 ______O___P___ -1 -12.5000 125.500 -12.7818 125.218 7 0 0
1923067S13125 1923 18 SI WA NOT_NAMED 1923-03-08 00:00:00 NR -12.7092 125.288 main 169 165 ______P___O___ -1 -12.5276 125.465 -12.8000 125.200 7 3 231
1923067S13125 1923 18 SI WA NOT_NAMED 1923-03-08 03:00:00 NR -12.8252 125.146 main 172 159 ______P___P___ -1 -12.6929 125.254 -12.9244 125.065 7 4 231
1923067S13125 1923 18 SI WA NOT_NAMED 1923-03-08 06:00:00 NR -12.9640 124.969 main 159 154 ______P___P___ -1 -12.8580 125.043 -13.0700 124.895 7 5 231
1923067S13125 1923 18 SI WA NOT_NAMED 1923-03-08 09:00:00 NR -13.1268 124.767 main 159 155 ______P___P___ -1 -13.0230 124.832 -13.2306 124.702 7 5 230
1923067S13125 1923 18 SI WA NOT_NAMED 1923-03-08 12:00:00 NR -13.2939 124.560 main 155 154 ______P___O___ -1 -13.1879 124.620 -13.4000 124.500 7 5 230
1923067S13125 1923 18 SI WA NOT_NAMED 1923-03-08 15:00:00 NR -13.4540 124.372 main 150 148 ______P___P___ -1 -13.3525 124.408 -13.5554 124.335 7 5 229
1923067S13125 1923 18 SI WA NOT_NAMED 1923-03-08 18:00:00 NR -13.6183 124.178 main 155 155 ______P___P___ -1 -13.5170 124.196 -13.7196 124.159 7 5 229
1923067S13125 1923 18 SI WA NOT_NAMED 1923-03-08 21:00:00 NR -13.7902 123.969 main 157 157 ______P___P___ -1 -13.6813 123.984 -13.8991 123.954 7 6 230
1923067S13125 1923 18 SI WA NOT_NAMED 1923-03-09 00:00:00 NR -13.9727 123.735 main 175 175 ______P___O___ -1 -13.8454 123.771 -14.1000 123.700 7 6 231
1923067S13125 1923 18 SI WA NOT_NAMED 1923-03-09 01:00:00 NR -14.0379 123.652 bom main 175 175 ______O___P___ -1 -13.9000 123.700 -14.1757 123.605 7 8 235
1923067S13125 1923 18 SI WA NOT_NAMED 1923-03-09 03:00:00 NR -14.2068 123.395 main 187 186 ______P___P___ -1 -14.0771 123.395 -14.3365 123.396 7 9 236
1923067S13125 1923 18 SI WA NOT_NAMED 1923-03-09 06:00:00 NR -14.4672 122.988 main 194 194 ______P___P___ -1 -14.3422 122.935 -14.5923 123.040 7 10 237
1923067S13125 1923 18 SI WA NOT_NAMED 1923-03-09 09:00:00 NR -14.7292 122.557 main 204 183 ______P___P___ -1 -14.6065 122.475 -14.8520 122.639 7 10 239
1923067S13125 1923 18 SI WA NOT_NAMED 1923-03-09 12:00:00 NR -14.9849 122.107 main 188 183 ______P___O___ -1 -14.8699 122.013 -15.1000 122.200 7 10 241
1923067S13125 1923 18 SI WA NOT_NAMED 1923-03-09 15:00:00 NR -15.2285 121.640 main 201 193 ______P___P___ -1 -15.1324 121.550 -15.3246 121.729 7 10 243
1923067S13125 1923 18 SI WA NOT_NAMED 1923-03-09 18:00:00 NR -15.4516 121.149 main 216 216 ______P___P___ -1 -15.3939 121.086 -15.5285 121.233 7 10 244
1923067S13125 1923 18 SI WA NOT_NAMED 1923-03-09 21:00:00 NR -15.6799 120.661 main 231 231 ______P___P___ -1 -15.6544 120.621 -15.7182 120.721 7 11 244
1923067S13125 1923 18 SI WA NOT_NAMED 1923-03-10 00:00:00 NR -15.9092 120.170 main 261 261 ______P___O___ -1 -15.9138 120.156 -15.9000 120.200 7 11 243
1923067S13125 1923 18 SI WA NOT_NAMED 1923-03-10 01:00:00 NR -16.0000 120.000 bom main 274 ______O_______ -1 -16.0000 120.000 7 11 241

About IBTrACS Database

This database is a web-friendly format of International Best Track Archive for Climate Stewardship (IBTrACS), a global best track data archive curated by NOAA dating back to 1842.

Updated: 2021-11-26